CAT ESP
Pilots school
Telephone 972234126 972 23 41 26
 

Aeronautical weather

 

This section shows the meteorological information that is used in the practice of students in the pilot school at our center during training, so it may not be current and should be used at your own risk. AERBRAVA is not responsible for its use.

 

ACTUAL WEATHER

Loading...

sat24.com

Servei Meteorològic de Catalunya

 

LEGE 160430Z VRB01KT CAVOK 12/11 Q1014 NOSIG
LEGE 160400Z VRB01KT CAVOK 12/11 Q1014 NOSIG
LEGE 160330Z VRB01KT CAVOK 12/11 Q1014 NOSIG
LEGE 160300Z 28003KT CAVOK 13/12 Q1014 NOSIG
LEGE 160230Z 24003KT CAVOK 12/11 Q1014 NOSIG
LEGE 160200Z VRB01KT CAVOK 12/11 Q1014 NOSIG
LEGE 160130Z VRB01KT CAVOK 13/11 Q1014 NOSIG
LEGE 160100Z VRB01KT CAVOK 14/12 Q1014 NOSIG
LEGE 160030Z 00000KT CAVOK 13/12 Q1015 NOSIG
LEGE 160000Z VRB01KT CAVOK 14/12 Q1015 NOSIG
LEGE 152330Z 29003KT CAVOK 15/12 Q1015 NOSIG
LEGE 152300Z 27004KT CAVOK 15/12 Q1016 NOSIG

TAF LEGE 152300Z 1600/1624 VRB04KT 9999 SCT040 TX26/1614Z TN14/1605Z
BECMG 1608/1610 18012KT
BECMG 1620/1622 VRB04KT

Aviation Weather

 
Aerbrava facebook Aerbrava twitter Aerbrava instagram
We do not use cookies, we do not collect or transfer users personal data. You can find additional information about our Cookies Policy HERE.

¡html Vàlid! ¡CSS Vàlid!